sensor_id;sensor_type;location;lat;lon;timestamp;P1;durP1;ratioP1;P2;durP2;ratioP2
70045;SDS011;57385;41.832;23.494;2022-10-16T00:00:06;13.37;;;6.30;;
70045;SDS011;57385;41.832;23.494;2022-10-16T00:00:26;12.35;;;6.00;;
70045;SDS011;57385;41.832;23.494;2022-10-16T00:00:46;16.70;;;6.57;;
70045;SDS011;57385;41.832;23.494;2022-10-16T00:01:06;16.37;;;6.30;;
70045;SDS011;57385;41.832;23.494;2022-10-16T00:01:28;13.15;;;5.97;;
70045;SDS011;57385;41.832;23.494;2022-10-16T00:01:49;12.55;;;6.18;;
70045;SDS011;57385;41.832;23.494;2022-10-16T00:02:08;9.98;;;5.80;;
70045;SDS011;57385;41.832;23.494;2022-10-16T00:02:28;9.47;;;5.67;;
70045;SDS011;57385;41.832;23.494;2022-10-16T00:02:47;10.48;;;5.57;;
70045;SDS011;57385;41.832;23.494;2022-10-16T00:03:07;10.33;;;5.63;;
70045;SDS011;57385;41.832;23.494;2022-10-16T00:03:27;14.95;;;6.47;;
70045;SDS011;57385;41.832;23.494;2022-10-16T00:03:47;13.88;;;6.00;;
70045;SDS011;57385;41.832;23.494;2022-10-16T00:04:08;12.02;;;5.70;;
70045;SDS011;57385;41.832;23.494;2022-10-16T00:04:27;12.63;;;6.30;;
70045;SDS011;57385;41.832;23.494;2022-10-16T00:04:47;11.35;;;5.90;;
70045;SDS011;57385;41.832;23.494;2022-10-16T00:05:06;11.10;;;5.37;;
70045;SDS011;57385;41.832;23.494;2022-10-16T00:05:26;11.57;;;5.95;;
70045;SDS011;57385;41.832;23.494;2022-10-16T00:05:45;12.33;;;6.20;;
70045;SDS011;57385;41.832;23.494;2022-10-16T00:06:07;11.00;;;5.97;;
70045;SDS011;57385;41.832;23.494;2022-10-16T00:06:28;15.65;;;6.53;;
70045;SDS011;57385;41.832;23.494;2022-10-16T00:06:48;15.88;;;6.68;;
70045;SDS011;57385;41.832;23.494;2022-10-16T00:07:08;13.30;;;6.80;;
70045;SDS011;57385;41.832;23.494;2022-10-16T00:07:27;12.85;;;6.72;;
70045;SDS011;57385;41.832;23.494;2022-10-16T00:07:47;13.50;;;6.30;;
70045;SDS011;57385;41.832;23.494;2022-10-16T00:08:06;13.18;;;6.05;;
70045;SDS011;57385;41.832;23.494;2022-10-16T00:08:26;14.57;;;7.00;;
70045;SDS011;57385;41.832;23.494;2022-10-16T00:08:46;16.27;;;7.28;;
70045;SDS011;57385;41.832;23.494;2022-10-16T00:09:06;13.93;;;7.00;;
70045;SDS011;57385;41.832;23.494;2022-10-16T00:09:26;15.88;;;6.68;;
70045;SDS011;57385;41.832;23.494;2022-10-16T00:09:45;13.63;;;6.40;;
70045;SDS011;57385;41.832;23.494;2022-10-16T00:10:05;12.20;;;6.53;;
70045;SDS011;57385;41.832;23.494;2022-10-16T00:10:25;15.07;;;7.05;;
70045;SDS011;57385;41.832;23.494;2022-10-16T00:10:44;14.75;;;6.70;;
70045;SDS011;57385;41.832;23.494;2022-10-16T00:11:10;14.20;;;6.83;;
70045;SDS011;57385;41.832;23.494;2022-10-16T00:11:32;12.48;;;6.57;;
70045;SDS011;57385;41.832;23.494;2022-10-16T00:11:54;18.92;;;7.32;;
70045;SDS011;57385;41.832;23.494;2022-10-16T00:12:13;18.17;;;7.50;;
70045;SDS011;57385;41.832;23.494;2022-10-16T00:12:33;15.05;;;7.10;;
70045;SDS011;57385;41.832;23.494;2022-10-16T00:12:52;14.83;;;6.63;;
70045;SDS011;57385;41.832;23.494;2022-10-16T00:13:11;12.40;;;6.70;;
70045;SDS011;57385;41.832;23.494;2022-10-16T00:13:32;13.43;;;7.17;;
70045;SDS011;57385;41.832;23.494;2022-10-16T00:13:55;14.45;;;6.85;;
70045;SDS011;57385;41.832;23.494;2022-10-16T00:14:17;11.48;;;6.30;;
70045;SDS011;57385;41.832;23.494;2022-10-16T00:14:36;14.77;;;6.00;;
70045;SDS011;57385;41.832;23.494;2022-10-16T00:14:56;18.47;;;6.60;;
70045;SDS011;57385;41.832;23.494;2022-10-16T00:15:15;15.93;;;6.80;;
70045;SDS011;57385;41.832;23.494;2022-10-16T00:15:36;15.55;;;7.25;;
70045;SDS011;57385;41.832;23.494;2022-10-16T00:15:56;14.43;;;7.03;;
70045;SDS011;57385;41.832;23.494;2022-10-16T00:16:17;13.32;;;6.68;;
70045;SDS011;57385;41.832;23.494;2022-10-16T00:16:37;12.27;;;6.45;;
70045;SDS011;57385;41.832;23.494;2022-10-16T00:16:57;14.50;;;6.53;;
70045;SDS011;57385;41.832;23.494;2022-10-16T00:17:18;14.65;;;6.65;;
70045;SDS011;57385;41.832;23.494;2022-10-16T00:17:38;11.23;;;6.00;;
70045;SDS011;57385;41.832;23.494;2022-10-16T00:17:57;16.87;;;6.10;;
70045;SDS011;57385;41.832;23.494;2022-10-16T00:18:17;15.07;;;6.53;;
70045;SDS011;57385;41.832;23.494;2022-10-16T00:18:36;12.27;;;6.73;;
70045;SDS011;57385;41.832;23.494;2022-10-16T00:18:56;10.75;;;6.50;;
70045;SDS011;57385;41.832;23.494;2022-10-16T00:19:16;10.30;;;6.13;;
70045;SDS011;57385;41.832;23.494;2022-10-16T00:19:35;12.55;;;6.13;;
70045;SDS011;57385;41.832;23.494;2022-10-16T00:19:55;13.17;;;6.27;;
70045;SDS011;57385;41.832;23.494;2022-10-16T00:20:14;13.13;;;6.35;;
70045;SDS011;57385;41.832;23.494;2022-10-16T00:20:34;12.37;;;6.40;;
70045;SDS011;57385;41.832;23.494;2022-10-16T00:20:54;14.77;;;6.68;;
70045;SDS011;57385;41.832;23.494;2022-10-16T00:21:18;15.13;;;6.55;;
70045;SDS011;57385;41.832;23.494;2022-10-16T00:21:39;17.02;;;6.82;;
70045;SDS011;57385;41.832;23.494;2022-10-16T00:21:58;13.75;;;6.55;;
70045;SDS011;57385;41.832;23.494;2022-10-16T00:22:18;13.07;;;6.43;;
70045;SDS011;57385;41.832;23.494;2022-10-16T00:22:37;11.40;;;6.27;;
70045;SDS011;57385;41.832;23.494;2022-10-16T00:22:57;12.07;;;6.57;;
70045;SDS011;57385;41.832;23.494;2022-10-16T00:23:16;14.33;;;7.10;;
70045;SDS011;57385;41.832;23.494;2022-10-16T00:23:36;13.33;;;6.37;;
70045;SDS011;57385;41.832;23.494;2022-10-16T00:23:57;12.85;;;6.30;;
70045;SDS011;57385;41.832;23.494;2022-10-16T00:24:19;17.83;;;7.25;;
70045;SDS011;57385;41.832;23.494;2022-10-16T00:24:38;12.48;;;6.53;;
70045;SDS011;57385;41.832;23.494;2022-10-16T00:24:57;11.87;;;6.07;;
70045;SDS011;57385;41.832;23.494;2022-10-16T00:25:17;13.30;;;6.50;;
70045;SDS011;57385;41.832;23.494;2022-10-16T00:25:36;13.23;;;6.87;;
70045;SDS011;57385;41.832;23.494;2022-10-16T00:25:57;16.17;;;7.00;;
70045;SDS011;57385;41.832;23.494;2022-10-16T00:26:18;15.96;;;6.96;;
70045;SDS011;57385;41.832;23.494;2022-10-16T00:26:38;12.73;;;6.57;;
70045;SDS011;57385;41.832;23.494;2022-10-16T00:26:57;13.15;;;6.22;;
70045;SDS011;57385;41.832;23.494;2022-10-16T00:27:17;13.00;;;6.73;;
70045;SDS011;57385;41.832;23.494;2022-10-16T00:27:36;17.17;;;7.10;;
70045;SDS011;57385;41.832;23.494;2022-10-16T00:27:56;15.03;;;7.20;;
70045;SDS011;57385;41.832;23.494;2022-10-16T00:28:15;13.88;;;7.10;;
70045;SDS011;57385;41.832;23.494;2022-10-16T00:28:35;15.60;;;6.77;;
70045;SDS011;57385;41.832;23.494;2022-10-16T00:28:55;15.13;;;6.70;;
70045;SDS011;57385;41.832;23.494;2022-10-16T00:29:14;14.65;;;6.55;;
70045;SDS011;57385;41.832;23.494;2022-10-16T00:29:34;13.97;;;6.50;;
70045;SDS011;57385;41.832;23.494;2022-10-16T00:29:53;17.02;;;6.78;;
70045;SDS011;57385;41.832;23.494;2022-10-16T00:30:13;15.77;;;7.22;;
70045;SDS011;57385;41.832;23.494;2022-10-16T00:30:36;14.30;;;6.17;;
70045;SDS011;57385;41.832;23.494;2022-10-16T00:30:57;14.82;;;6.88;;
70045;SDS011;57385;41.832;23.494;2022-10-16T00:31:18;14.32;;;6.90;;
70045;SDS011;57385;41.832;23.494;2022-10-16T00:31:39;18.10;;;7.82;;
70045;SDS011;57385;41.832;23.494;2022-10-16T00:31:58;17.48;;;7.97;;
70045;SDS011;57385;41.832;23.494;2022-10-16T00:32:21;14.03;;;6.93;;
70045;SDS011;57385;41.832;23.494;2022-10-16T00:32:40;12.27;;;6.85;;
70045;SDS011;57385;41.832;23.494;2022-10-16T00:32:59;16.23;;;7.00;;
70045;SDS011;57385;41.832;23.494;2022-10-16T00:33:19;15.87;;;7.27;;
70045;SDS011;57385;41.832;23.494;2022-10-16T00:33:39;13.05;;;6.88;;
70045;SDS011;57385;41.832;23.494;2022-10-16T00:33:59;12.00;;;6.60;;
70045;SDS011;57385;41.832;23.494;2022-10-16T00:34:18;21.33;;;7.53;;
70045;SDS011;57385;41.832;23.494;2022-10-16T00:34:38;15.60;;;7.13;;
70045;SDS011;57385;41.832;23.494;2022-10-16T00:34:57;13.80;;;7.03;;
70045;SDS011;57385;41.832;23.494;2022-10-16T00:35:19;15.60;;;7.53;;
70045;SDS011;57385;41.832;23.494;2022-10-16T00:35:38;14.04;;;6.76;;
70045;SDS011;57385;41.832;23.494;2022-10-16T00:35:58;16.17;;;7.07;;
70045;SDS011;57385;41.832;23.494;2022-10-16T00:36:20;15.73;;;7.22;;
70045;SDS011;57385;41.832;23.494;2022-10-16T00:36:41;15.25;;;7.10;;
70045;SDS011;57385;41.832;23.494;2022-10-16T00:37:00;15.17;;;7.50;;
70045;SDS011;57385;41.832;23.494;2022-10-16T00:37:20;15.80;;;7.10;;
70045;SDS011;57385;41.832;23.494;2022-10-16T00:37:39;12.43;;;6.60;;
70045;SDS011;57385;41.832;23.494;2022-10-16T00:37:59;12.40;;;7.00;;
70045;SDS011;57385;41.832;23.494;2022-10-16T00:38:18;18.37;;;7.80;;
70045;SDS011;57385;41.832;23.494;2022-10-16T00:38:38;15.27;;;7.97;;
70045;SDS011;57385;41.832;23.494;2022-10-16T00:38:57;13.83;;;7.73;;
70045;SDS011;57385;41.832;23.494;2022-10-16T00:39:17;16.70;;;8.02;;
70045;SDS011;57385;41.832;23.494;2022-10-16T00:39:36;16.80;;;7.57;;
70045;SDS011;57385;41.832;23.494;2022-10-16T00:39:59;15.10;;;7.40;;
70045;SDS011;57385;41.832;23.494;2022-10-16T00:40:18;13.50;;;7.43;;
70045;SDS011;57385;41.832;23.494;2022-10-16T00:40:38;12.20;;;6.75;;
70045;SDS011;57385;41.832;23.494;2022-10-16T00:40:58;16.45;;;7.18;;
70045;SDS011;57385;41.832;23.494;2022-10-16T00:41:18;17.17;;;6.97;;
70045;SDS011;57385;41.832;23.494;2022-10-16T00:41:37;15.77;;;6.82;;
70045;SDS011;57385;41.832;23.494;2022-10-16T00:41:57;15.43;;;6.53;;
70045;SDS011;57385;41.832;23.494;2022-10-16T00:42:17;15.55;;;7.38;;
70045;SDS011;57385;41.832;23.494;2022-10-16T00:42:37;14.10;;;7.25;;
70045;SDS011;57385;41.832;23.494;2022-10-16T00:42:58;13.40;;;6.53;;
70045;SDS011;57385;41.832;23.494;2022-10-16T00:43:58;12.63;;;6.57;;
70045;SDS011;57385;41.832;23.494;2022-10-16T00:45:01;10.00;;;5.70;;
70045;SDS011;57385;41.832;23.494;2022-10-16T00:45:21;13.73;;;6.88;;
70045;SDS011;57385;41.832;23.494;2022-10-16T00:45:41;10.50;;;6.50;;
70045;SDS011;57385;41.832;23.494;2022-10-16T00:46:00;10.25;;;6.50;;
70045;SDS011;57385;41.832;23.494;2022-10-16T00:46:42;11.38;;;5.72;;
70045;SDS011;57385;41.832;23.494;2022-10-16T00:47:02;11.32;;;5.90;;
70045;SDS011;57385;41.832;23.494;2022-10-16T00:47:28;10.03;;;5.73;;
70045;SDS011;57385;41.832;23.494;2022-10-16T00:47:48;11.05;;;5.95;;
70045;SDS011;57385;41.832;23.494;2022-10-16T00:48:10;13.80;;;5.97;;
70045;SDS011;57385;41.832;23.494;2022-10-16T00:48:32;12.30;;;5.55;;
70045;SDS011;57385;41.832;23.494;2022-10-16T00:49:17;11.38;;;6.03;;
70045;SDS011;57385;41.832;23.494;2022-10-16T00:49:38;12.80;;;6.53;;
70045;SDS011;57385;41.832;23.494;2022-10-16T00:49:59;16.03;;;6.50;;
70045;SDS011;57385;41.832;23.494;2022-10-16T00:50:32;17.85;;;7.15;;
70045;SDS011;57385;41.832;23.494;2022-10-16T00:50:53;14.20;;;6.78;;
70045;SDS011;57385;41.832;23.494;2022-10-16T00:51:16;15.23;;;7.53;;
70045;SDS011;57385;41.832;23.494;2022-10-16T00:51:52;16.77;;;7.88;;
70045;SDS011;57385;41.832;23.494;2022-10-16T00:52:12;11.20;;;6.63;;
70045;SDS011;57385;41.832;23.494;2022-10-16T00:52:33;16.77;;;6.88;;
70045;SDS011;57385;41.832;23.494;2022-10-16T00:52:53;15.25;;;7.05;;
70045;SDS011;57385;41.832;23.494;2022-10-16T00:53:14;13.35;;;7.10;;
70045;SDS011;57385;41.832;23.494;2022-10-16T00:53:33;15.57;;;7.65;;
70045;SDS011;57385;41.832;23.494;2022-10-16T00:53:54;13.75;;;7.28;;
70045;SDS011;57385;41.832;23.494;2022-10-16T00:54:16;13.32;;;7.20;;
70045;SDS011;57385;41.832;23.494;2022-10-16T00:54:42;16.17;;;7.55;;
70045;SDS011;57385;41.832;23.494;2022-10-16T00:55:02;15.88;;;7.63;;
70045;SDS011;57385;41.832;23.494;2022-10-16T00:55:23;15.70;;;7.55;;
70045;SDS011;57385;41.832;23.494;2022-10-16T00:55:44;14.50;;;7.50;;
70045;SDS011;57385;41.832;23.494;2022-10-16T00:56:03;16.70;;;7.73;;
70045;SDS011;57385;41.832;23.494;2022-10-16T00:56:23;21.10;;;8.63;;
70045;SDS011;57385;41.832;23.494;2022-10-16T00:56:43;17.53;;;7.40;;
70045;SDS011;57385;41.832;23.494;2022-10-16T00:57:04;14.25;;;7.35;;
70045;SDS011;57385;41.832;23.494;2022-10-16T00:57:25;19.80;;;7.78;;
70045;SDS011;57385;41.832;23.494;2022-10-16T00:57:46;17.05;;;7.00;;
70045;SDS011;57385;41.832;23.494;2022-10-16T00:58:06;14.88;;;6.45;;
70045;SDS011;57385;41.832;23.494;2022-10-16T00:58:26;14.48;;;7.00;;
70045;SDS011;57385;41.832;23.494;2022-10-16T00:58:45;21.10;;;7.80;;
70045;SDS011;57385;41.832;23.494;2022-10-16T00:59:06;16.90;;;7.47;;
70045;SDS011;57385;41.832;23.494;2022-10-16T00:59:37;14.43;;;6.35;;
70045;SDS011;57385;41.832;23.494;2022-10-16T00:59:58;14.02;;;6.57;;
70045;SDS011;57385;41.832;23.494;2022-10-16T01:00:21;12.98;;;6.38;;
70045;SDS011;57385;41.832;23.494;2022-10-16T01:00:42;11.80;;;5.97;;
70045;SDS011;57385;41.832;23.494;2022-10-16T01:01:04;14.23;;;6.20;;
70045;SDS011;57385;41.832;23.494;2022-10-16T01:01:23;13.95;;;6.10;;
70045;SDS011;57385;41.832;23.494;2022-10-16T01:01:43;14.20;;;6.30;;
70045;SDS011;57385;41.832;23.494;2022-10-16T01:02:05;12.53;;;6.40;;
70045;SDS011;57385;41.832;23.494;2022-10-16T01:02:26;10.02;;;6.00;;
70045;SDS011;57385;41.832;23.494;2022-10-16T01:02:51;11.40;;;5.97;;
70045;SDS011;57385;41.832;23.494;2022-10-16T01:03:34;10.48;;;5.97;;
70045;SDS011;57385;41.832;23.494;2022-10-16T01:03:54;11.35;;;6.13;;
70045;SDS011;57385;41.832;23.494;2022-10-16T01:04:14;12.43;;;6.37;;
70045;SDS011;57385;41.832;23.494;2022-10-16T01:04:38;11.80;;;6.72;;
70045;SDS011;57385;41.832;23.494;2022-10-16T01:05:00;9.13;;;5.72;;
70045;SDS011;57385;41.832;23.494;2022-10-16T01:05:24;11.02;;;6.45;;
70045;SDS011;57385;41.832;23.494;2022-10-16T01:05:51;15.40;;;6.05;;
70045;SDS011;57385;41.832;23.494;2022-10-16T01:07:59;11.65;;;5.35;;
70045;SDS011;57385;41.832;23.494;2022-10-16T01:08:36;8.20;;;5.55;;
70045;SDS011;57385;41.832;23.494;2022-10-16T01:09:11;12.43;;;6.00;;
70045;SDS011;57385;41.832;23.494;2022-10-16T01:10:44;10.47;;;5.80;;
70045;SDS011;57385;41.832;23.494;2022-10-16T01:12:15;9.35;;;5.15;;
70045;SDS011;57385;41.832;23.494;2022-10-16T01:12:45;12.05;;;5.28;;
70045;SDS011;57385;41.832;23.494;2022-10-16T01:13:10;9.77;;;5.47;;
70045;SDS011;57385;41.832;23.494;2022-10-16T01:13:41;8.75;;;5.13;;
70045;SDS011;57385;41.832;23.494;2022-10-16T01:14:06;8.50;;;5.03;;
70045;SDS011;57385;41.832;23.494;2022-10-16T01:14:59;9.80;;;5.22;;
70045;SDS011;57385;41.832;23.494;2022-10-16T01:16:06;9.85;;;5.72;;
70045;SDS011;57385;41.832;23.494;2022-10-16T01:16:34;10.07;;;6.10;;
70045;SDS011;57385;41.832;23.494;2022-10-16T01:17:04;10.65;;;5.40;;
70045;SDS011;57385;41.832;23.494;2022-10-16T01:17:38;11.15;;;5.32;;
70045;SDS011;57385;41.832;23.494;2022-10-16T01:18:13;9.85;;;5.10;;
70045;SDS011;57385;41.832;23.494;2022-10-16T01:20:27;8.83;;;5.13;;
70045;SDS011;57385;41.832;23.494;2022-10-16T01:21:01;11.40;;;6.10;;
70045;SDS011;57385;41.832;23.494;2022-10-16T01:21:29;11.13;;;5.78;;
70045;SDS011;57385;41.832;23.494;2022-10-16T01:21:53;11.68;;;6.50;;
70045;SDS011;57385;41.832;23.494;2022-10-16T01:22:16;12.15;;;6.72;;
70045;SDS011;57385;41.832;23.494;2022-10-16T01:22:54;15.23;;;6.72;;
70045;SDS011;57385;41.832;23.494;2022-10-16T01:25:09;15.52;;;6.30;;
70045;SDS011;57385;41.832;23.494;2022-10-16T01:27:25;12.27;;;5.88;;
70045;SDS011;57385;41.832;23.494;2022-10-16T01:27:47;12.90;;;6.20;;
70045;SDS011;57385;41.832;23.494;2022-10-16T01:28:08;11.70;;;6.15;;
70045;SDS011;57385;41.832;23.494;2022-10-16T01:29:29;14.75;;;6.40;;
70045;SDS011;57385;41.832;23.494;2022-10-16T01:30:35;12.13;;;6.35;;
70045;SDS011;57385;41.832;23.494;2022-10-16T01:30:59;11.02;;;6.15;;
70045;SDS011;57385;41.832;23.494;2022-10-16T01:31:22;11.32;;;6.32;;
70045;SDS011;57385;41.832;23.494;2022-10-16T01:31:46;10.27;;;6.30;;
70045;SDS011;57385;41.832;23.494;2022-10-16T01:32:33;12.50;;;6.30;;
70045;SDS011;57385;41.832;23.494;2022-10-16T01:32:55;14.15;;;6.75;;
70045;SDS011;57385;41.832;23.494;2022-10-16T01:33:20;11.23;;;6.10;;
70045;SDS011;57385;41.832;23.494;2022-10-16T01:33:44;17.85;;;6.63;;
70045;SDS011;57385;41.832;23.494;2022-10-16T01:34:12;13.52;;;6.50;;
70045;SDS011;57385;41.832;23.494;2022-10-16T01:34:37;12.20;;;6.13;;
70045;SDS011;57385;41.832;23.494;2022-10-16T01:35:11;10.63;;;6.25;;
70045;SDS011;57385;41.832;23.494;2022-10-16T01:35:37;13.70;;;6.50;;
70045;SDS011;57385;41.832;23.494;2022-10-16T01:36:03;13.50;;;6.70;;
70045;SDS011;57385;41.832;23.494;2022-10-16T01:36:31;11.68;;;6.15;;
70045;SDS011;57385;41.832;23.494;2022-10-16T01:36:57;13.68;;;6.78;;
70045;SDS011;57385;41.832;23.494;2022-10-16T01:37:36;11.73;;;6.30;;
70045;SDS011;57385;41.832;23.494;2022-10-16T01:38:01;12.98;;;6.47;;
70045;SDS011;57385;41.832;23.494;2022-10-16T01:38:54;7.93;;;5.57;;
70045;SDS011;57385;41.832;23.494;2022-10-16T01:39:20;12.45;;;6.80;;
70045;SDS011;57385;41.832;23.494;2022-10-16T01:39:48;12.77;;;6.78;;
70045;SDS011;57385;41.832;23.494;2022-10-16T01:40:13;12.00;;;6.22;;
70045;SDS011;57385;41.832;23.494;2022-10-16T01:40:36;16.00;;;6.10;;
70045;SDS011;57385;41.832;23.494;2022-10-16T01:40:59;13.18;;;6.35;;
70045;SDS011;57385;41.832;23.494;2022-10-16T01:41:24;8.68;;;5.70;;
70045;SDS011;57385;41.832;23.494;2022-10-16T01:41:51;13.43;;;6.82;;
70045;SDS011;57385;41.832;23.494;2022-10-16T01:42:19;12.52;;;6.72;;
70045;SDS011;57385;41.832;23.494;2022-10-16T01:42:46;11.80;;;6.40;;
70045;SDS011;57385;41.832;23.494;2022-10-16T01:43:33;12.00;;;6.80;;
70045;SDS011;57385;41.832;23.494;2022-10-16T01:44:21;13.00;;;6.65;;
70045;SDS011;57385;41.832;23.494;2022-10-16T01:44:45;11.60;;;6.80;;
70045;SDS011;57385;41.832;23.494;2022-10-16T01:45:06;9.88;;;6.47;;
70045;SDS011;57385;41.832;23.494;2022-10-16T01:45:28;10.68;;;6.15;;
70045;SDS011;57385;41.832;23.494;2022-10-16T01:45:50;12.77;;;6.75;;
70045;SDS011;57385;41.832;23.494;2022-10-16T01:46:11;13.77;;;6.85;;
70045;SDS011;57385;41.832;23.494;2022-10-16T01:46:35;10.60;;;6.15;;
70045;SDS011;57385;41.832;23.494;2022-10-16T01:46:58;11.57;;;6.88;;
70045;SDS011;57385;41.832;23.494;2022-10-16T01:47:19;11.90;;;6.68;;
70045;SDS011;57385;41.832;23.494;2022-10-16T01:47:43;13.27;;;6.90;;
70045;SDS011;57385;41.832;23.494;2022-10-16T01:48:04;11.15;;;6.75;;
70045;SDS011;57385;41.832;23.494;2022-10-16T01:48:25;12.82;;;6.78;;
70045;SDS011;57385;41.832;23.494;2022-10-16T01:48:46;16.15;;;6.78;;
70045;SDS011;57385;41.832;23.494;2022-10-16T01:49:07;17.35;;;7.45;;
70045;SDS011;57385;41.832;23.494;2022-10-16T01:49:32;18.42;;;7.57;;
70045;SDS011;57385;41.832;23.494;2022-10-16T01:49:54;15.90;;;7.30;;
70045;SDS011;57385;41.832;23.494;2022-10-16T01:50:15;11.93;;;6.80;;
70045;SDS011;57385;41.832;23.494;2022-10-16T01:50:40;12.20;;;6.78;;
70045;SDS011;57385;41.832;23.494;2022-10-16T01:51:06;14.07;;;6.68;;
70045;SDS011;57385;41.832;23.494;2022-10-16T01:51:29;14.00;;;6.93;;
70045;SDS011;57385;41.832;23.494;2022-10-16T01:51:50;10.93;;;7.00;;
70045;SDS011;57385;41.832;23.494;2022-10-16T01:52:16;14.13;;;7.15;;
70045;SDS011;57385;41.832;23.494;2022-10-16T01:52:42;16.13;;;7.00;;
70045;SDS011;57385;41.832;23.494;2022-10-16T01:53:04;14.90;;;7.28;;
70045;SDS011;57385;41.832;23.494;2022-10-16T01:53:26;13.40;;;7.60;;
70045;SDS011;57385;41.832;23.494;2022-10-16T01:53:47;14.48;;;7.15;;
70045;SDS011;57385;41.832;23.494;2022-10-16T01:54:11;18.77;;;7.63;;
70045;SDS011;57385;41.832;23.494;2022-10-16T01:54:35;15.90;;;7.70;;
70045;SDS011;57385;41.832;23.494;2022-10-16T01:54:57;12.23;;;7.43;;
70045;SDS011;57385;41.832;23.494;2022-10-16T01:55:25;13.93;;;7.75;;
70045;SDS011;57385;41.832;23.494;2022-10-16T01:55:48;16.98;;;7.50;;
70045;SDS011;57385;41.832;23.494;2022-10-16T01:56:11;12.30;;;7.15;;
70045;SDS011;57385;41.832;23.494;2022-10-16T01:56:34;13.23;;;6.70;;
70045;SDS011;57385;41.832;23.494;2022-10-16T01:56:55;16.45;;;6.97;;
70045;SDS011;57385;41.832;23.494;2022-10-16T01:57:16;16.10;;;7.05;;
70045;SDS011;57385;41.832;23.494;2022-10-16T01:57:43;18.10;;;7.15;;
70045;SDS011;57385;41.832;23.494;2022-10-16T01:58:05;12.43;;;6.97;;
70045;SDS011;57385;41.832;23.494;2022-10-16T01:58:28;14.80;;;7.44;;
70045;SDS011;57385;41.832;23.494;2022-10-16T01:59:05;14.00;;;7.15;;
70045;SDS011;57385;41.832;23.494;2022-10-16T01:59:30;15.93;;;7.40;;
70045;SDS011;57385;41.832;23.494;2022-10-16T01:59:53;11.80;;;7.03;;
70045;SDS011;57385;41.832;23.494;2022-10-16T02:00:15;16.77;;;7.82;;
70045;SDS011;57385;41.832;23.494;2022-10-16T02:00:38;12.88;;;7.78;;
70045;SDS011;57385;41.832;23.494;2022-10-16T02:01:01;16.70;;;7.72;;
70045;SDS011;57385;41.832;23.494;2022-10-16T02:01:23;12.73;;;7.05;;
70045;SDS011;57385;41.832;23.494;2022-10-16T02:01:47;15.95;;;7.60;;
70045;SDS011;57385;41.832;23.494;2022-10-16T02:02:12;12.57;;;6.78;;
70045;SDS011;57385;41.832;23.494;2022-10-16T02:02:34;15.60;;;6.97;;
70045;SDS011;57385;41.832;23.494;2022-10-16T02:02:53;17.33;;;7.87;;
70045;SDS011;57385;41.832;23.494;2022-10-16T02:03:16;11.32;;;6.70;;
70045;SDS011;57385;41.832;23.494;2022-10-16T02:03:37;11.10;;;6.90;;
70045;SDS011;57385;41.832;23.494;2022-10-16T02:04:11;15.68;;;7.55;;
70045;SDS011;57385;41.832;23.494;2022-10-16T02:04:43;14.38;;;7.13;;
70045;SDS011;57385;41.832;23.494;2022-10-16T02:05:18;17.02;;;7.72;;
70045;SDS011;57385;41.832;23.494;2022-10-16T02:05:53;17.38;;;7.80;;
70045;SDS011;57385;41.832;23.494;2022-10-16T02:06:15;15.55;;;7.28;;
70045;SDS011;57385;41.832;23.494;2022-10-16T02:06:35;15.98;;;6.85;;
70045;SDS011;57385;41.832;23.494;2022-10-16T02:06:54;15.27;;;7.27;;
70045;SDS011;57385;41.832;23.494;2022-10-16T02:07:14;14.98;;;7.57;;
70045;SDS011;57385;41.832;23.494;2022-10-16T02:07:34;19.88;;;6.85;;
70045;SDS011;57385;41.832;23.494;2022-10-16T02:07:54;14.50;;;6.78;;
70045;SDS011;57385;41.832;23.494;2022-10-16T02:08:13;14.82;;;6.78;;
70045;SDS011;57385;41.832;23.494;2022-10-16T02:08:33;12.93;;;7.23;;
70045;SDS011;57385;41.832;23.494;2022-10-16T02:08:53;12.20;;;7.30;;
70045;SDS011;57385;41.832;23.494;2022-10-16T02:09:12;10.68;;;6.70;;
70045;SDS011;57385;41.832;23.494;2022-10-16T02:09:32;11.97;;;6.93;;
70045;SDS011;57385;41.832;23.494;2022-10-16T02:09:53;12.50;;;6.65;;
70045;SDS011;57385;41.832;23.494;2022-10-16T02:10:14;12.77;;;6.40;;
70045;SDS011;57385;41.832;23.494;2022-10-16T02:10:34;15.68;;;6.55;;
70045;SDS011;57385;41.832;23.494;2022-10-16T02:10:56;15.38;;;6.68;;
70045;SDS011;57385;41.832;23.494;2022-10-16T02:11:16;13.25;;;6.45;;
70045;SDS011;57385;41.832;23.494;2022-10-16T02:11:39;12.68;;;6.93;;
70045;SDS011;57385;41.832;23.494;2022-10-16T02:11:59;11.57;;;6.53;;
70045;SDS011;57385;41.832;23.494;2022-10-16T02:12:26;16.50;;;6.50;;
70045;SDS011;57385;41.832;23.494;2022-10-16T02:12:50;16.08;;;6.38;;
70045;SDS011;57385;41.832;23.494;2022-10-16T02:13:39;16.80;;;7.15;;
70045;SDS011;57385;41.832;23.494;2022-10-16T02:14:06;13.80;;;6.25;;
70045;SDS011;57385;41.832;23.494;2022-10-16T02:14:26;14.20;;;6.82;;
70045;SDS011;57385;41.832;23.494;2022-10-16T02:14:48;14.95;;;7.35;;
70045;SDS011;57385;41.832;23.494;2022-10-16T02:15:07;13.70;;;6.65;;
70045;SDS011;57385;41.832;23.494;2022-10-16T02:15:27;13.63;;;6.93;;
70045;SDS011;57385;41.832;23.494;2022-10-16T02:15:47;12.37;;;6.97;;
70045;SDS011;57385;41.832;23.494;2022-10-16T02:16:06;12.85;;;7.10;;
70045;SDS011;57385;41.832;23.494;2022-10-16T02:16:35;12.90;;;7.18;;
70045;SDS011;57385;41.832;23.494;2022-10-16T02:16:59;13.16;;;6.36;;
70045;SDS011;57385;41.832;23.494;2022-10-16T02:17:20;14.20;;;6.67;;
70045;SDS011;57385;41.832;23.494;2022-10-16T02:17:42;12.52;;;6.13;;
70045;SDS011;57385;41.832;23.494;2022-10-16T02:18:02;11.13;;;6.33;;
70045;SDS011;57385;41.832;23.494;2022-10-16T02:18:24;14.40;;;7.25;;
70045;SDS011;57385;41.832;23.494;2022-10-16T02:18:44;12.82;;;6.88;;
70045;SDS011;57385;41.832;23.494;2022-10-16T02:19:04;12.90;;;6.47;;
70045;SDS011;57385;41.832;23.494;2022-10-16T02:19:24;13.07;;;6.35;;
70045;SDS011;57385;41.832;23.494;2022-10-16T02:19:44;10.40;;;6.13;;
70045;SDS011;57385;41.832;23.494;2022-10-16T02:20:07;10.88;;;5.90;;
70045;SDS011;57385;41.832;23.494;2022-10-16T02:20:27;11.50;;;6.18;;
70045;SDS011;57385;41.832;23.494;2022-10-16T02:20:51;12.90;;;7.18;;
70045;SDS011;57385;41.832;23.494;2022-10-16T02:21:16;11.77;;;6.80;;
70045;SDS011;57385;41.832;23.494;2022-10-16T02:21:42;11.32;;;6.60;;
70045;SDS011;57385;41.832;23.494;2022-10-16T02:22:07;13.75;;;6.70;;
70045;SDS011;57385;41.832;23.494;2022-10-16T02:22:35;13.27;;;6.63;;
70045;SDS011;57385;41.832;23.494;2022-10-16T02:22:58;16.02;;;6.63;;
70045;SDS011;57385;41.832;23.494;2022-10-16T02:23:23;16.27;;;6.95;;
70045;SDS011;57385;41.832;23.494;2022-10-16T02:24:00;14.10;;;7.43;;
70045;SDS011;57385;41.832;23.494;2022-10-16T02:25:00;17.05;;;7.53;;
70045;SDS011;57385;41.832;23.494;2022-10-16T02:25:27;14.52;;;7.88;;
70045;SDS011;57385;41.832;23.494;2022-10-16T02:25:50;14.73;;;7.75;;
70045;SDS011;57385;41.832;23.494;2022-10-16T02:26:15;17.90;;;8.25;;
70045;SDS011;57385;41.832;23.494;2022-10-16T02:26:52;16.55;;;8.10;;
70045;SDS011;57385;41.832;23.494;2022-10-16T02:28:08;13.98;;;8.13;;
70045;SDS011;57385;41.832;23.494;2022-10-16T02:28:40;15.00;;;9.18;;
70045;SDS011;57385;41.832;23.494;2022-10-16T02:29:05;13.73;;;8.57;;
70045;SDS011;57385;41.832;23.494;2022-10-16T02:29:29;15.25;;;8.40;;